Time;durP1;ratioP1;P1;durP2;ratioP2;P2;SDS_P1;SDS_P2;PMS_P1;PMS_P2;Temp;Humidity;BMP_temperature;BMP_pressure;BME280_temperature;BME280_humidity;BME280_pressure;Samples;Min_cycle;Max_cycle;Signal;HPM_P1;HPM_P2
2022/04/12 00:00:20;;;;;;;6.13;3.43;;;;;;;7.03;55.95;98792.91;5115772;28;41766;-78
2022/04/12 00:02:48;;;;;;;5.20;3.20;;;;;;;6.93;55.73;98770.56;5087281;27;42160;-78
2022/04/12 00:05:15;;;;;;;8.77;4.93;;;;;;;6.99;55.68;98784.31;5117193;28;42696;-78
2022/04/12 00:07:45;;;;;;;4.63;3.43;;;;;;;6.98;55.70;98787.00;5111445;28;38691;-79
2022/04/12 00:10:14;;;;;;;5.30;3.53;;;;;;;6.96;55.80;98789.72;5110700;28;40817;-79
2022/04/12 00:12:42;;;;;;;6.87;4.03;;;;;;;6.94;55.36;98785.44;5093562;28;41740;-79
2022/04/12 00:15:12;;;;;;;5.93;3.40;;;;;;;6.83;55.28;98781.56;5110034;28;42970;-78
2022/04/12 00:20:26;;;;;;;5.50;3.87;;;;;;;6.83;55.36;98793.88;5093670;28;41646;-78
2022/04/12 00:22:56;;;;;;;5.40;3.57;;;;;;;6.71;55.27;98778.66;5093554;28;41739;-79
2022/04/12 00:25:25;;;;;;;4.50;2.80;;;;;;;6.76;55.19;98793.31;5090050;28;41071;-78
2022/04/12 00:27:54;;;;;;;4.60;2.70;;;;;;;6.72;55.22;98785.63;5101721;27;40781;-78
2022/04/12 00:30:24;;;;;;;4.27;3.17;;;;;;;6.69;55.59;98786.63;5092913;28;40702;-79
2022/04/12 00:32:52;;;;;;;4.63;3.17;;;;;;;6.67;55.46;98788.50;5110694;28;41803;-78
2022/04/12 00:35:21;;;;;;;4.33;3.00;;;;;;;6.63;55.41;98786.09;5094330;28;42437;-79
2022/04/12 00:37:50;;;;;;;5.00;3.33;;;;;;;6.61;55.83;98788.78;5087825;28;39107;-79
2022/04/12 00:40:20;;;;;;;4.70;3.07;;;;;;;6.60;55.74;98781.81;5108319;27;41985;-78
2022/04/12 00:42:48;;;;;;;3.77;2.93;;;;;;;6.56;55.90;98780.25;5083011;27;41677;-79
2022/04/12 00:45:15;;;;;;;7.27;3.80;;;;;;;6.58;57.11;98777.56;5091384;28;41641;-78
2022/04/12 00:47:43;;;;;;;5.50;3.73;;;;;;;6.55;56.24;98781.19;5089223;28;39050;-78
2022/04/12 00:50:12;;;;;;;4.43;3.50;;;;;;;6.54;56.41;98781.28;5108508;28;42131;-77
2022/04/12 00:52:42;;;;;;;4.40;3.00;;;;;;;6.48;56.71;98774.50;5092818;28;42784;-79
2022/04/12 00:55:11;;;;;;;5.17;3.13;;;;;;;6.49;56.51;98779.69;5092498;28;42464;-79
2022/04/12 00:57:42;;;;;;;4.60;3.17;;;;;;;6.48;57.06;98774.50;5110060;28;40879;-79
2022/04/12 01:00:12;;;;;;;4.80;3.23;;;;;;;6.28;56.67;98759.69;5092790;28;40562;-78
2022/04/12 01:02:40;;;;;;;5.17;3.23;;;;;;;6.43;56.50;98784.38;5092918;28;43235;-79
2022/04/12 01:05:08;;;;;;;4.30;3.13;;;;;;;6.36;56.33;98785.59;5109603;28;41256;-79
2022/04/12 01:07:37;;;;;;;4.87;3.20;;;;;;;6.38;58.24;98771.47;5093029;28;38902;-78
2022/04/12 01:10:05;;;;;;;4.60;3.50;;;;;;;6.37;58.72;98768.91;5109345;28;41678;-78
2022/04/12 01:12:38;;;;;;;6.07;3.77;;;;;;;6.38;59.21;98771.47;5109659;28;42012;-78
2022/04/12 01:15:25;;;;;;;7.10;3.93;;;;;;;6.35;60.12;98753.19;5092010;28;41031;-79
2022/04/12 01:17:53;;;;;;;7.40;3.40;;;;;;;6.38;60.06;98765.34;5092162;28;39699;-78
2022/04/12 01:20:24;;;;;;;5.53;4.37;;;;;;;6.38;59.63;98760.09;5109030;28;41470;-78
2022/04/12 01:22:56;;;;;;;5.27;3.97;;;;;;;6.38;59.37;98763.56;5109344;28;41233;-78
2022/04/12 01:25:26;;;;;;;6.87;4.27;;;;;;;6.34;59.00;98758.50;5092064;28;41114;-77
2022/04/12 01:27:53;;;;;;;4.10;3.17;;;;;;;6.37;58.50;98768.91;5092674;28;40649;-78
2022/04/12 01:30:21;;;;;;;4.27;3.33;;;;;;;6.35;58.26;98765.50;5109505;28;41281;-78
2022/04/12 01:32:49;;;;;;;3.17;2.80;;;;;;;5.92;58.27;98699.16;5111105;28;42677;-78
2022/04/12 01:35:16;;;;;;;5.47;3.17;;;;;;;6.21;58.25;98754.75;5091397;28;42205;-78
2022/04/12 01:37:44;;;;;;;3.93;3.20;;;;;;;6.25;58.29;98758.97;5092737;28;39827;-79
2022/04/12 01:40:12;;;;;;;5.53;3.10;;;;;;;6.20;58.31;98761.78;5092334;28;40199;-79
2022/04/12 01:42:41;;;;;;;6.23;4.00;;;;;;;6.18;58.53;98760.19;5092348;28;41983;-77
2022/04/12 01:45:10;;;;;;;5.73;3.27;;;;;;;6.13;58.26;98766.50;5090607;28;40945;-79
2022/04/12 01:47:37;;;;;;;5.07;2.80;;;;;;;6.09;58.01;98762.28;5092224;28;38499;-79
2022/04/12 01:50:06;;;;;;;4.33;3.00;;;;;;;6.05;58.08;98760.75;5091766;28;41087;-78
2022/04/12 01:52:35;;;;;;;6.57;3.47;;;;;;;6.00;58.14;98762.72;5089737;28;42077;-78
2022/04/12 01:55:03;;;;;;;6.27;3.60;;;;;;;5.91;58.18;98755.25;5091358;28;42379;-78
2022/04/12 01:57:31;;;;;;;3.33;2.93;;;;;;;5.92;57.89;98762.22;5109007;28;39030;-77
2022/04/12 02:00:00;;;;;;;4.57;2.80;;;;;;;5.90;57.79;98760.56;5110442;28;42390;-78
2022/04/12 02:02:27;;;;;;;4.47;3.10;;;;;;;5.87;57.68;98763.31;5091974;28;42669;-78
2022/04/12 02:04:55;;;;;;;4.77;3.20;;;;;;;5.83;57.70;98767.84;5109771;28;42402;-78
2022/04/12 02:07:23;;;;;;;5.70;3.30;;;;;;;5.78;57.97;98769.84;5091501;28;38871;-78
2022/04/12 02:09:50;;;;;;;5.23;3.60;;;;;;;5.75;58.16;98770.81;5108620;28;42723;-78
2022/04/12 02:12:18;;;;;;;3.73;3.10;;;;;;;5.70;58.17;98771.94;5089248;28;43084;-80
2022/04/12 02:14:46;;;;;;;5.03;3.57;;;;;;;5.68;58.65;98773.78;5090710;28;41204;-78
2022/04/12 02:17:14;;;;;;;5.00;3.00;;;;;;;5.63;59.12;98765.25;5109598;28;39927;-78
2022/04/12 02:19:42;;;;;;;4.67;3.03;;;;;;;5.60;59.72;98760.97;5090757;28;41794;-78
2022/04/12 02:22:10;;;;;;;4.60;3.00;;;;;;;5.55;59.59;98757.72;5087512;28;42115;-80
2022/04/12 02:24:37;;;;;;;5.53;3.53;;;;;;;5.56;59.82;98763.81;5091278;28;40948;-78
2022/04/12 02:27:05;;;;;;;6.37;3.43;;;;;;;5.55;59.93;98762.13;5110037;28;39800;-78
2022/04/12 02:29:33;;;;;;;5.83;3.57;;;;;;;5.54;59.73;98771.78;5095401;28;40609;-78
2022/04/12 02:32:00;;;;;;;5.10;3.47;;;;;;;5.54;60.10;98776.16;5101755;28;43687;-78
2022/04/12 02:34:30;;;;;;;4.43;3.23;;;;;;;5.53;59.59;98774.47;5094960;28;41370;-78
2022/04/12 02:36:57;;;;;;;4.43;3.30;;;;;;;5.45;59.45;98772.16;5095424;28;38857;-78
2022/04/12 02:39:25;;;;;;;4.47;3.07;;;;;;;5.49;59.25;98783.38;5091574;28;41329;-78
2022/04/12 02:41:53;;;;;;;4.37;3.20;;;;;;;5.47;59.13;98785.22;5092594;28;42366;-78
2022/04/12 02:44:20;;;;;;;4.60;2.80;;;;;;;5.39;59.17;98775.91;5094343;28;43255;-78
2022/04/12 02:46:48;;;;;;;4.33;2.80;;;;;;;5.37;59.59;98771.63;5112333;28;39967;-78
2022/04/12 02:49:16;;;;;;;3.90;3.10;;;;;;;5.33;60.26;98767.41;5111480;27;41808;-77
2022/04/12 02:51:45;;;;;;;4.67;3.10;;;;;;;5.39;60.94;98769.78;5111390;28;43698;-79
2022/04/12 02:54:13;;;;;;;5.37;3.80;;;;;;;5.38;60.73;98775.97;5094601;28;42029;-77
2022/04/12 02:56:40;;;;;;;5.00;2.80;;;;;;;5.36;60.36;98776.03;5087473;28;40069;-78
2022/04/12 02:59:08;;;;;;;4.80;2.93;;;;;;;5.33;59.95;98773.53;5114491;27;41673;-78
2022/04/12 03:01:36;;;;;;;4.10;2.83;;;;;;;5.20;59.98;98761.84;5077549;28;42827;-77
2022/04/12 03:04:04;;;;;;;5.87;3.33;;;;;;;5.28;59.78;98780.75;5074062;28;41293;-78
2022/04/12 03:06:32;;;;;;;4.57;2.97;;;;;;;5.11;59.38;98754.34;5124969;27;39869;-78
2022/04/12 03:09:01;;;;;;;4.20;2.40;;;;;;;5.19;59.42;98777.69;5094446;27;42972;-79
2022/04/12 03:11:28;;;;;;;3.80;2.80;;;;;;;5.16;59.62;98776.03;5088544;28;42022;-79
2022/04/12 03:13:56;;;;;;;5.07;3.20;;;;;;;5.17;60.65;98775.09;5093243;28;41847;-76
2022/04/12 03:16:23;;;;;;;5.30;2.70;;;;;;;5.16;61.14;98769.91;5110921;27;39945;-77
2022/04/12 03:18:51;;;;;;;5.03;3.33;;;;;;;5.13;60.93;98775.28;5107357;27;41538;-78
2022/04/12 03:21:19;;;;;;;6.23;3.37;;;;;;;5.11;60.91;98767.47;5084523;28;43155;-78
2022/04/12 03:23:47;;;;;;;4.17;3.17;;;;;;;5.12;62.19;98753.44;5107773;27;42261;-77
2022/04/12 03:26:16;;;;;;;4.93;3.43;;;;;;;5.12;62.09;98758.69;5115943;27;39997;-79
2022/04/12 03:28:44;;;;;;;6.57;4.23;;;;;;;5.14;62.48;98756.84;5087436;28;40382;-78
2022/04/12 03:31:11;;;;;;;5.73;3.60;;;;;;;5.11;62.67;98741.22;5105795;27;41939;-77
2022/04/12 03:33:39;;;;;;;5.83;4.23;;;;;;;5.15;63.27;98739.34;5110006;27;42196;-78
2022/04/12 03:36:07;;;;;;;6.50;4.17;;;;;;;5.17;63.59;98741.00;5112897;27;40013;-79
2022/04/12 03:38:35;;;;;;;7.50;4.30;;;;;;;5.18;63.42;98745.31;5102946;27;41783;-79
2022/04/12 03:41:03;;;;;;;7.70;4.10;;;;;;;5.20;63.15;98745.22;5087480;28;42651;-78
2022/04/12 03:43:33;;;;;;;5.80;4.23;;;;;;;5.19;64.05;98744.41;5101753;27;42207;-79
2022/04/12 03:46:01;;;;;;;5.13;3.80;;;;;;;5.20;63.49;98740.84;5103460;27;40659;-78
2022/04/12 03:48:29;;;;;;;5.20;4.30;;;;;;;5.20;63.68;98740.84;5112839;28;41888;-78
2022/04/12 03:50:57;;;;;;;6.23;4.30;;;;;;;5.20;63.65;98737.34;5110653;28;42429;-77
2022/04/12 03:53:24;;;;;;;6.77;4.20;;;;;;;5.19;63.66;98733.91;5111597;28;42202;-79
2022/04/12 03:55:52;;;;;;;5.90;4.00;;;;;;;5.18;63.61;98732.19;5109668;27;40187;-78
2022/04/12 03:58:20;;;;;;;6.13;4.47;;;;;;;5.00;63.76;98707.56;5111158;28;41827;-78
2022/04/12 04:00:50;;;;;;;5.37;3.60;;;;;;;5.15;65.08;98727.06;5093769;28;43280;-79
2022/04/12 04:03:18;;;;;;;8.30;4.60;;;;;;;5.16;64.67;98728.78;5110648;28;42321;-79
2022/04/12 04:05:46;;;;;;;7.47;5.10;;;;;;;5.12;65.26;98716.69;5093459;28;39909;-77
2022/04/12 04:08:14;;;;;;;6.10;4.50;;;;;;;5.14;64.94;98725.34;5115034;27;42732;-78
2022/04/12 04:10:41;;;;;;;7.00;4.50;;;;;;;5.12;65.22;98735.06;5081276;28;41750;-77
2022/04/12 04:13:11;;;;;;;6.47;4.30;;;;;;;5.01;65.16;98718.91;5108060;27;41266;-78
2022/04/12 04:15:40;;;;;;;6.87;4.47;;;;;;;5.14;64.76;98746.34;5095542;28;40983;-78
2022/04/12 04:18:09;;;;;;;5.00;3.90;;;;;;;5.14;64.22;98761.25;5074456;28;40409;-78
2022/04/12 04:20:37;;;;;;;6.13;3.70;;;;;;;5.12;63.64;98763.94;5088041;27;42197;-78
2022/04/12 04:23:06;;;;;;;5.50;3.63;;;;;;;5.11;63.19;98756.13;5131763;27;41547;-78
2022/04/12 04:25:34;;;;;;;6.03;3.93;;;;;;;5.04;62.92;98766.03;5108085;28;39147;-79
2022/04/12 04:28:02;;;;;;;4.93;3.90;;;;;;;4.99;62.77;98749.63;5093003;28;40798;-78
2022/04/12 04:30:32;;;;;;;5.03;3.27;;;;;;;5.04;63.00;98766.03;5105102;28;43801;-79
2022/04/12 04:33:00;;;;;;;4.10;3.27;;;;;;;5.03;62.91;98766.94;5109117;28;43136;-77
2022/04/12 04:35:29;;;;;;;4.20;3.00;;;;;;;5.04;62.42;98766.03;5108808;27;38935;-78
2022/04/12 04:37:56;;;;;;;5.17;3.60;;;;;;;5.03;62.45;98764.34;5092022;27;40954;-79
2022/04/12 04:40:24;;;;;;;4.93;3.80;;;;;;;5.05;62.51;98758.09;5096112;27;41969;-78
2022/04/12 04:42:52;;;;;;;5.07;3.30;;;;;;;5.04;62.17;98758.16;5093167;28;42392;-79
2022/04/12 04:45:20;;;;;;;4.83;3.50;;;;;;;5.12;61.96;98769.19;5110694;27;40155;-78
2022/04/12 04:47:49;;;;;;;4.57;3.37;;;;;;;5.05;61.75;98752.84;5108255;27;42607;-78
2022/04/12 04:50:18;;;;;;;4.13;2.90;;;;;;;5.19;61.59;98770.66;5092980;28;41798;-77
2022/04/12 04:52:47;;;;;;;4.03;2.80;;;;;;;5.24;61.39;98784.41;5093724;28;41673;-77
2022/04/12 04:55:16;;;;;;;4.60;2.90;;;;;;;5.26;61.13;98785.22;5110395;28;39470;-77
2022/04/12 04:57:45;;;;;;;4.50;2.90;;;;;;;5.31;61.15;98791.13;5111534;28;41766;-77
2022/04/12 05:00:16;;;;;;;3.60;2.80;;;;;;;5.36;60.98;98789.16;5110145;28;43053;-78
2022/04/12 05:02:45;;;;;;;3.67;2.57;;;;;;;5.37;61.35;98780.34;5107687;27;41151;-77
2022/04/12 05:05:13;;;;;;;4.17;2.80;;;;;;;5.35;61.04;98765.59;5130959;27;39414;-79
2022/04/12 05:07:42;;;;;;;5.23;4.27;;;;;;;5.56;61.76;98787.47;5125214;27;42443;-78
2022/04/12 05:10:15;;;;;;;7.33;4.50;;;;;;;5.64;61.68;98788.81;5110107;28;43345;-77
2022/04/12 05:12:43;;;;;;;5.73;4.37;;;;;;;5.74;61.39;98792.75;5093396;28;41267;-77
2022/04/12 05:15:10;;;;;;;4.77;3.40;;;;;;;5.83;61.70;98791.47;5111399;28;39925;-78
2022/04/12 05:17:38;;;;;;;4.73;3.57;;;;;;;5.94;61.48;98791.88;5111500;28;41772;-79
2022/04/12 05:20:07;;;;;;;4.03;3.30;;;;;;;6.05;61.13;98794.91;5109498;28;41878;-77
2022/04/12 05:22:35;;;;;;;6.40;4.50;;;;;;;6.17;60.80;98796.13;5093046;28;42229;-79
2022/04/12 05:25:02;;;;;;;5.83;4.07;;;;;;;6.26;61.17;98789.59;5110042;28;38905;-78
2022/04/12 05:27:33;;;;;;;4.90;3.73;;;;;;;6.37;61.24;98789.94;5109582;28;41952;-79
2022/04/12 05:30:02;;;;;;;4.77;3.77;;;;;;;6.46;61.03;98795.63;5110233;28;44321;-77
2022/04/12 05:32:29;;;;;;;7.47;4.47;;;;;;;6.54;61.30;98787.38;5093073;28;42084;-79
2022/04/12 05:34:57;;;;;;;6.73;4.67;;;;;;;6.55;60.73;98777.72;5109442;28;40076;-78
2022/04/12 05:37:25;;;;;;;7.97;4.30;;;;;;;6.67;60.73;98793.78;5109286;28;41931;-79
2022/04/12 05:39:52;;;;;;;5.17;4.30;;;;;;;6.74;60.42;98795.19;5092449;28;41722;-77
2022/04/12 05:42:20;;;;;;;4.47;3.60;;;;;;;6.80;60.30;98788.75;5109946;28;42468;-78
2022/04/12 05:44:49;;;;;;;7.20;4.53;;;;;;;7.04;60.04;98815.69;5110784;28;40178;-79
2022/04/12 05:47:17;;;;;;;6.30;4.30;;;;;;;7.02;59.98;98788.56;5084860;28;41004;-80
2022/04/12 05:49:44;;;;;;;6.27;4.30;;;;;;;7.23;59.60;98816.47;5092385;28;43070;-81
2022/04/12 05:52:12;;;;;;;6.47;4.20;;;;;;;7.34;59.56;98822.06;5079608;28;42632;-82
2022/04/12 05:54:40;;;;;;;6.80;4.50;;;;;;;7.48;59.47;98824.00;5100685;28;40870;-82
2022/04/12 05:57:08;;;;;;;6.87;4.30;;;;;;;7.62;59.06;98831.22;5096768;28;41910;-79
2022/04/12 05:59:35;;;;;;;5.57;4.20;;;;;;;7.73;58.74;98828.88;5092512;28;41413;-82
2022/04/12 06:02:04;;;;;;;6.43;4.43;;;;;;;7.91;58.08;98843.75;5090002;28;41053;-78
2022/04/12 06:04:32;;;;;;;8.30;4.90;;;;;;;7.95;57.95;98816.28;5092400;28;38872;-80
2022/04/12 06:06:59;;;;;;;7.50;4.77;;;;;;;7.98;57.56;98794.19;5092096;28;40574;-81
2022/04/12 06:09:27;;;;;;;7.03;4.20;;;;;;;8.44;57.06;98837.44;5075969;28;41442;-78
2022/04/12 06:11:55;;;;;;;8.27;4.37;;;;;;;8.59;56.45;98841.88;5093508;28;42321;-80
2022/04/12 06:14:22;;;;;;;7.37;4.60;;;;;;;8.76;56.33;98839.19;5076537;28;38981;-80
2022/04/12 06:16:50;;;;;;;6.90;4.13;;;;;;;8.94;56.32;98840.78;5079171;28;40972;-82
2022/04/12 06:19:19;;;;;;;5.73;4.10;;;;;;;8.88;55.77;98814.75;5092648;28;42732;-81
2022/04/12 06:21:46;;;;;;;5.63;3.90;;;;;;;9.23;55.34;98860.28;5122939;27;42457;-82
2022/04/12 06:24:14;;;;;;;6.03;4.23;;;;;;;9.40;55.29;98851.38;5113201;28;40471;-83
2022/04/12 06:26:41;;;;;;;7.07;4.80;;;;;;;9.56;54.44;98854.84;5113102;28;41128;-79
2022/04/12 06:29:09;;;;;;;6.73;4.23;;;;;;;9.33;54.25;98798.03;5113618;28;43115;-82
2022/04/12 06:31:37;;;;;;;4.47;3.93;;;;;;;9.80;53.99;98851.69;5113047;28;43118;-80
2022/04/12 06:34:04;;;;;;;4.90;4.00;;;;;;;9.93;53.64;98855.31;5113933;28;40133;-83
2022/04/12 06:36:33;;;;;;;4.33;3.70;;;;;;;10.03;53.63;98851.16;5095731;28;40233;-83
2022/04/12 06:39:01;;;;;;;5.80;3.57;;;;;;;10.12;53.92;98834.75;5092264;28;42911;-83
2022/04/12 06:41:29;;;;;;;6.17;4.57;;;;;;;10.22;53.67;98848.28;5086202;28;41292;-81
2022/04/12 06:43:56;;;;;;;6.83;4.53;;;;;;;10.25;53.37;98856.06;5092105;28;38739;-81
2022/04/12 06:46:24;;;;;;;5.30;3.67;;;;;;;10.29;52.77;98863.69;5101959;28;42677;-80
2022/04/12 06:48:53;;;;;;;4.83;3.60;;;;;;;10.33;52.74;98869.66;5112693;28;43099;-78
2022/04/12 06:51:21;;;;;;;5.70;4.00;;;;;;;10.39;52.78;98859.53;5113488;28;42134;-80
2022/04/12 06:53:50;;;;;;;6.63;4.23;;;;;;;10.47;52.87;98850.28;5113546;27;38879;-78
2022/04/12 06:56:18;;;;;;;5.07;3.80;;;;;;;10.62;53.47;98849.34;5128943;27;42699;-81
2022/04/12 06:58:46;;;;;;;5.00;4.13;;;;;;;10.78;52.95;98850.91;5132432;27;42025;-78
2022/04/12 07:01:13;;;;;;;5.60;4.47;;;;;;;10.79;52.60;98841.16;5115747;27;43804;-85
2022/04/12 07:03:41;;;;;;;8.47;4.07;;;;;;;11.07;51.89;98858.78;5132990;27;40134;-83
2022/04/12 07:06:09;;;;;;;6.03;3.73;;;;;;;11.32;52.31;98852.75;5132829;27;41742;-80
2022/04/12 07:08:36;;;;;;;5.30;3.80;;;;;;;11.71;51.18;98857.22;5124929;27;42737;-81
2022/04/12 07:11:05;;;;;;;4.17;3.77;;;;;;;12.05;50.72;98847.84;5108614;28;43176;-80
2022/04/12 07:13:33;;;;;;;6.10;4.30;;;;;;;12.42;50.55;98846.16;5120180;27;40637;-81
2022/04/12 07:16:02;;;;;;;6.10;4.20;;;;;;;12.68;49.05;98865.56;5126085;27;42649;-80
2022/04/12 07:18:30;;;;;;;4.87;3.80;;;;;;;12.99;49.90;98838.47;5094600;28;41796;-81
2022/04/12 07:20:57;;;;;;;7.23;4.13;;;;;;;13.41;47.91;98847.81;5111897;28;41193;-80
2022/04/12 07:23:25;;;;;;;5.90;3.90;;;;;;;13.93;47.67;98858.06;5111823;28;39819;-80
2022/04/12 07:25:52;;;;;;;5.27;4.30;;;;;;;14.36;47.94;98852.06;5113015;28;42763;-80
2022/04/12 07:28:21;;;;;;;5.33;3.93;;;;;;;14.66;46.51;98865.69;5094382;28;41999;-84
2022/04/12 07:30:49;;;;;;;6.57;4.60;;;;;;;15.01;45.00;98856.69;5094562;28;41460;-81
2022/04/12 07:33:17;;;;;;;6.10;4.90;;;;;;;15.71;43.00;98888.31;5112078;28;40103;-82
2022/04/12 07:35:45;;;;;;;4.33;3.60;;;;;;;16.43;40.63;98902.66;5094697;28;41034;-81
2022/04/12 07:38:12;;;;;;;4.67;4.20;;;;;;;17.22;39.21;98906.41;5112104;28;42698;-82
2022/04/12 07:40:40;;;;;;;4.47;3.33;;;;;;;17.78;38.89;98899.63;5093855;28;42150;-82
2022/04/12 07:43:07;;;;;;;7.47;4.10;;;;;;;18.06;37.06;98904.13;5094507;28;38678;-82
2022/04/12 07:45:37;;;;;;;5.03;4.10;;;;;;;18.25;37.76;98896.09;5111202;28;40717;-79
2022/04/12 07:48:05;;;;;;;4.27;3.40;;;;;;;18.41;37.98;98891.97;5112535;28;42678;-81
2022/04/12 07:50:33;;;;;;;4.97;4.00;;;;;;;18.43;36.94;98892.66;5111251;28;41618;-83
2022/04/12 07:53:00;;;;;;;4.67;3.43;;;;;;;18.42;35.78;98885.63;5095129;28;39695;-83
2022/04/12 07:55:28;;;;;;;5.60;3.83;;;;;;;18.52;34.83;98883.75;5094634;28;41567;-85
2022/04/12 07:57:55;;;;;;;4.43;4.03;;;;;;;18.86;35.45;98890.31;5111772;28;42104;-80
2022/04/12 08:00:23;;;;;;;4.47;3.20;;;;;;;19.32;34.51;98889.38;5108116;27;41400;-85
2022/04/12 08:02:53;;;;;;;3.30;3.00;;;;;;;20.00;34.06;98897.00;5110916;27;40257;-83
2022/04/12 08:05:21;;;;;;;4.87;3.40;;;;;;;20.85;33.18;98914.28;5109598;27;40915;-83
2022/04/12 08:07:48;;;;;;;7.70;4.17;;;;;;;21.77;32.24;98915.19;5109281;27;43728;-83
2022/04/12 08:10:16;;;;;;;4.57;4.07;;;;;;;22.66;30.70;98906.31;5106254;27;42944;-81
2022/04/12 08:12:46;;;;;;;4.57;3.77;;;;;;;23.42;28.65;98918.44;5081705;28;40339;-84
2022/04/12 08:15:15;;;;;;;5.10;3.80;;;;;;;24.15;27.83;98934.25;5110272;28;41822;-83
2022/04/12 08:17:43;;;;;;;3.47;3.07;;;;;;;24.52;27.62;98925.34;5093388;28;41681;-83
2022/04/12 08:20:14;;;;;;;3.53;3.23;;;;;;;25.06;28.13;98928.75;5092768;28;41989;-80
2022/04/12 08:22:42;;;;;;;4.17;3.40;;;;;;;26.12;25.65;98941.78;5093424;28;39182;-81
2022/04/12 08:25:11;;;;;;;4.47;3.80;;;;;;;27.24;24.06;98956.34;5109468;27;41794;-81
2022/04/12 08:27:38;;;;;;;4.20;3.50;;;;;;;28.10;23.88;98943.97;5110220;28;43787;-81
2022/04/12 08:30:08;;;;;;;3.80;3.50;;;;;;;29.02;23.26;98961.50;5093766;28;41334;-83
2022/04/12 08:32:35;;;;;;;3.80;3.47;;;;;;;30.08;21.95;98960.16;5106350;28;40031;-81
2022/04/12 08:35:03;;;;;;;4.00;3.60;;;;;;;30.97;21.03;98949.00;5108887;28;41788;-81
2022/04/12 08:37:33;;;;;;;4.40;3.33;;;;;;;31.67;20.82;98971.47;5106314;28;42137;-81
2022/04/12 08:40:01;;;;;;;3.60;3.13;;;;;;;32.20;18.92;98970.81;5116979;28;42045;-82
2022/04/12 08:42:28;;;;;;;4.00;3.70;;;;;;;32.43;18.78;98970.88;5115340;28;38859;-79
2022/04/12 08:44:58;;;;;;;3.73;3.43;;;;;;;32.69;18.11;98979.78;5111871;28;41056;-79
2022/04/12 08:47:27;;;;;;;3.77;3.23;;;;;;;32.95;18.91;98951.09;5110122;28;41955;-81
2022/04/12 08:49:55;;;;;;;4.00;3.65;;;;;;;33.85;17.13;98979.00;5092965;28;41351;-81
2022/04/12 08:52:24;;;;;;;3.97;3.58;;;;;;;34.48;16.44;98978.06;5109727;28;40908;-81
2022/04/12 08:54:53;;;;;;;4.13;3.83;;;;;;;34.25;16.76;98978.94;5092820;28;41795;-82
2022/04/12 08:57:20;;;;;;;3.88;3.47;;;;;;;33.98;17.30;98969.66;5109292;28;41758;-82
2022/04/12 08:59:48;;;;;;;3.60;3.30;;;;;;;34.06;16.58;98970.09;5093058;28;41071;-84
2022/04/12 09:02:16;;;;;;;3.47;3.17;;;;;;;34.09;17.30;98963.25;5093174;28;39041;-83
2022/04/12 09:04:43;;;;;;;3.45;3.15;;;;;;;34.19;17.12;98949.72;5109737;28;41429;-81
2022/04/12 09:07:12;;;;;;;3.45;3.15;;;;;;;34.07;17.51;98958.00;5109566;28;43806;-81
2022/04/12 09:09:44;;;;;;;3.70;3.40;;;;;;;33.88;16.77;98957.34;5108931;28;43035;-81
2022/04/12 09:12:14;;;;;;;3.50;3.20;;;;;;;33.44;17.53;98960.78;5092040;28;39212;-80
2022/04/12 09:14:43;;;;;;;3.10;2.90;;;;;;;33.29;17.56;98957.69;5091661;28;41781;-82
2022/04/12 09:17:13;;;;;;;3.30;3.00;;;;;;;32.88;18.45;98929.28;5091842;28;41604;-81
2022/04/12 09:19:43;;;;;;;4.20;3.23;;;;;;;32.04;17.92;98917.44;5109029;28;42129;-82
2022/04/12 09:22:13;;;;;;;3.53;3.17;;;;;;;31.41;19.21;98934.25;5109415;28;39871;-82
2022/04/12 09:24:45;;;;;;;4.13;3.00;;;;;;;30.54;20.09;98897.00;5091945;28;41042;-82
2022/04/12 09:27:16;;;;;;;5.43;3.40;;;;;;;30.22;19.66;98918.03;5107374;28;43256;-80
2022/04/12 09:29:49;;;;;;;3.63;3.07;;;;;;;30.21;20.64;98908.16;5092407;28;41951;-81
2022/04/12 09:32:19;;;;;;;4.03;3.13;;;;;;;30.56;19.92;98891.31;5109784;28;38936;-80
2022/04/12 09:34:47;;;;;;;3.93;3.30;;;;;;;31.21;19.29;98911.75;5090606;28;40973;-81
2022/04/12 09:37:24;;;;;;;4.00;3.30;;;;;;;31.82;19.35;98912.72;5112195;27;43193;-84
2022/04/12 09:40:04;;;;;;;3.37;3.07;;;;;;;31.64;18.94;98916.34;5112823;28;41463;-81
2022/04/12 09:42:44;;;;;;;3.70;3.40;;;;;;;30.92;19.74;98902.31;5108581;28;40688;-83
2022/04/12 09:45:14;;;;;;;5.57;3.83;;;;;;;30.49;20.12;98893.25;5109735;27;41808;-81
2022/04/12 09:47:43;;;;;;;3.87;3.20;;;;;;;30.43;20.17;98888.66;5108652;28;41867;-83
2022/04/12 09:50:11;;;;;;;3.60;3.30;;;;;;;30.43;20.00;98885.91;5112825;28;42140;-82
2022/04/12 09:52:40;;;;;;;3.77;3.47;;;;;;;30.57;19.55;98898.44;5105342;28;40242;-82
2022/04/12 09:55:08;;;;;;;3.67;3.13;;;;;;;30.94;19.40;98905.69;5112713;28;41519;-83
2022/04/12 09:57:41;;;;;;;3.53;3.23;;;;;;;30.66;19.39;98899.88;5090408;28;41757;-84
2022/04/12 10:00:10;;;;;;;3.60;3.13;;;;;;;30.14;20.58;98881.97;5094765;28;41142;-81
2022/04/12 10:02:38;;;;;;;4.67;3.00;;;;;;;29.94;20.26;98876.56;5112493;28;40441;-83
2022/04/12 10:05:08;;;;;;;4.13;2.90;;;;;;;29.79;20.96;98855.06;5112525;28;42589;-82
2022/04/12 10:07:36;;;;;;;4.30;3.20;;;;;;;30.00;20.40;98873.00;5112322;28;43383;-82
2022/04/12 10:10:05;;;;;;;3.50;3.13;;;;;;;30.33;21.24;98857.19;5112786;28;42413;-81
2022/04/12 10:12:35;;;;;;;2.93;2.60;;;;;;;30.42;20.13;98863.22;5104598;27;39911;-81
2022/04/12 10:15:05;;;;;;;3.07;2.83;;;;;;;30.65;19.91;98862.66;5113924;27;40971;-82
2022/04/12 10:17:34;;;;;;;3.53;3.23;;;;;;;30.63;20.14;98859.31;5124813;27;42929;-82
2022/04/12 10:20:03;;;;;;;4.13;3.30;;;;;;;30.75;20.38;98862.97;5105084;27;42950;-84
2022/04/12 10:22:31;;;;;;;3.30;3.00;;;;;;;31.14;19.43;98867.22;5115642;27;39273;-83
2022/04/12 10:24:59;;;;;;;3.10;2.80;;;;;;;31.84;19.83;98858.56;5109905;27;41861;-79
2022/04/12 10:27:27;;;;;;;3.87;3.07;;;;;;;32.80;18.44;98861.03;5083839;28;43307;-81
2022/04/12 10:30:27;;;;;;;2.83;2.60;;;;;;;33.41;17.81;98835.78;5105237;27;41979;-84
2022/04/12 10:33:02;;;;;;;4.20;2.60;;;;;;;34.09;16.75;98875.31;5103110;27;39248;-82
2022/04/12 10:35:31;;;;;;;3.77;3.10;;;;;;;34.66;16.00;98886.19;5103425;27;41468;-83
2022/04/12 10:38:04;;;;;;;3.50;2.90;;;;;;;34.95;15.90;98863.00;5107010;27;41797;-82
2022/04/12 10:40:35;;;;;;;3.30;3.00;;;;;;;35.33;15.18;98864.09;5111907;28;43131;-83
2022/04/12 10:43:04;;;;;;;2.85;2.65;;;;;;;35.62;15.21;98879.31;5092694;28;39216;-80
2022/04/12 10:45:33;;;;;;;3.60;3.30;;;;;;;35.93;14.84;98870.34;5106449;27;41795;-81
2022/04/12 10:48:02;;;;;;;3.47;3.17;;;;;;;36.16;14.45;98871.13;5106603;27;42615;-86
2022/04/12 10:50:42;;;;;;;3.78;2.55;;;;;;;36.32;15.32;98864.69;5106707;27;42472;-83
2022/04/12 10:53:10;;;;;;;3.13;2.87;;;;;;;36.46;15.12;98871.44;5104498;27;40109;-84
2022/04/12 10:55:40;;;;;;;4.15;3.30;;;;;;;36.60;15.42;98861.59;5092606;28;40807;-82
2022/04/12 10:58:16;;;;;;;4.07;2.80;;;;;;;36.53;15.46;98855.47;5106558;27;42723;-84
2022/04/12 11:00:46;;;;;;;3.50;3.13;;;;;;;36.50;15.02;98858.75;5093763;28;41214;-84
2022/04/12 11:03:15;;;;;;;3.00;2.80;;;;;;;36.20;16.07;98823.47;5107689;27;39699;-82
2022/04/12 11:06:06;;;;;;;3.50;3.10;;;;;;;35.71;15.57;98836.47;5111238;28;41557;-89
2022/04/12 11:08:47;;;;;;;3.23;2.90;;;;;;;35.28;16.14;98829.06;5110738;27;43753;-88
2022/04/12 11:11:20;;;;;;;3.00;2.73;;;;;;;35.45;16.33;98807.81;5114210;27;41973;-83
2022/04/12 11:13:49;;;;;;;2.77;2.57;;;;;;;35.72;15.03;98837.31;5109666;28;40389;-86
2022/04/12 11:16:22;;;;;;;3.00;2.80;;;;;;;36.01;15.42;98830.44;5093411;27;40972;-84
2022/04/12 11:18:51;;;;;;;3.13;2.90;;;;;;;36.48;14.46;98838.88;5106311;28;42315;-83
2022/04/12 11:21:20;;;;;;;3.40;3.10;;;;;;;36.62;14.33;98837.34;5108016;27;42710;-84
2022/04/12 11:23:51;;;;;;;3.55;2.55;;;;;;;37.42;14.35;98835.34;5087542;28;38634;-83
2022/04/12 11:26:45;;;;;;;3.05;2.75;;;;;;;37.88;13.74;98827.22;5082924;28;41681;-83
2022/04/12 11:29:15;;;;;;;3.05;2.85;;;;;;;37.65;13.35;98820.25;5074635;28;42677;-84
2022/04/12 11:31:47;;;;;;;3.20;2.90;;;;;;;36.86;14.57;98823.16;5093761;28;41336;-83
2022/04/12 11:34:16;;;;;;;3.20;2.90;;;;;;;36.09;15.84;98791.38;5091813;28;38847;-82
2022/04/12 11:36:45;;;;;;;3.37;2.50;;;;;;;36.14;15.42;98796.94;5093252;28;42023;-83
2022/04/12 11:39:17;;;;;;;2.65;2.45;;;;;;;37.07;14.10;98800.09;5109340;27;42944;-82
2022/04/12 11:41:45;;;;;;;4.45;2.78;;;;;;;38.14;13.95;98811.50;5104727;27;42719;-84
2022/04/12 11:44:12;;;;;;;3.05;2.83;;;;;;;38.67;13.20;98810.13;5089326;27;38982;-82
2022/04/12 11:46:40;;;;;;;2.63;2.42;;;;;;;38.85;12.98;98816.97;5088865;28;40479;-82
2022/04/12 11:49:10;;;;;;;2.72;2.53;;;;;;;39.16;13.00;98807.50;5111643;28;42571;-83